createdAt,value
2023-03-17T00:01:21.963Z,2.53
2023-03-17T00:04:26.867Z,2.60
2023-03-17T00:07:29.636Z,3.00
2023-03-17T00:10:33.195Z,3.00
2023-03-17T00:13:36.061Z,2.95
2023-03-17T00:16:42.460Z,3.50
2023-03-17T00:19:45.748Z,2.97
2023-03-17T00:22:49.245Z,3.50
2023-03-17T00:25:53.787Z,1.73
2023-03-17T00:28:57.153Z,2.15
2023-03-17T00:32:00.113Z,2.40
2023-03-17T00:35:06.306Z,2.50
2023-03-17T00:38:17.146Z,2.62
2023-03-17T00:41:20.642Z,2.90
2023-03-17T00:44:24.368Z,3.03
2023-03-17T00:47:27.913Z,2.40
2023-03-17T00:50:30.865Z,2.25
2023-03-17T00:53:34.447Z,2.15
2023-03-17T00:56:39.006Z,1.90
2023-03-17T00:59:42.844Z,2.15
2023-03-17T01:02:47.399Z,2.33
2023-03-17T01:05:52.969Z,2.20
2023-03-17T01:08:56.476Z,1.65
2023-03-17T01:12:00.812Z,1.50
2023-03-17T01:15:04.012Z,2.20
2023-03-17T01:18:07.057Z,2.50
2023-03-17T01:21:09.890Z,2.08
2023-03-17T01:24:13.062Z,1.98
2023-03-17T01:27:16.730Z,1.67
2023-03-17T01:30:19.764Z,2.40
2023-03-17T01:33:22.607Z,1.20
2023-03-17T01:36:25.719Z,2.10
2023-03-17T01:39:28.643Z,2.00
2023-03-17T01:42:31.866Z,1.20
2023-03-17T01:46:12.489Z,2.30
2023-03-17T01:49:17.878Z,1.53
2023-03-17T01:52:23.266Z,1.00
2023-03-17T01:55:26.530Z,2.00
2023-03-17T01:58:29.694Z,1.50
2023-03-17T02:01:42.889Z,1.40
2023-03-17T02:04:46.049Z,2.07
2023-03-17T02:07:49.519Z,2.05
2023-03-17T02:10:53.044Z,2.22
2023-03-17T02:13:55.795Z,2.15
2023-03-17T02:16:58.971Z,1.65
2023-03-17T02:20:17.349Z,2.30
2023-03-17T02:23:25.143Z,1.85
2023-03-17T02:26:31.820Z,2.37
2023-03-17T02:29:36.241Z,2.20
2023-03-17T02:32:39.814Z,2.40
2023-03-17T02:35:43.252Z,1.70
2023-03-17T02:38:46.167Z,2.17
2023-03-17T02:41:49.320Z,2.42
2023-03-17T02:44:52.301Z,1.65
2023-03-17T02:47:57.697Z,2.00
2023-03-17T02:51:00.652Z,2.30
2023-03-17T02:54:04.544Z,2.40
2023-03-17T02:57:08.686Z,2.12
2023-03-17T03:00:14.463Z,2.30
2023-03-17T03:03:17.391Z,2.55
2023-03-17T03:06:20.765Z,2.40
2023-03-17T03:09:24.430Z,2.10
2023-03-17T03:12:27.483Z,1.80
2023-03-17T03:15:30.542Z,1.90
2023-03-17T03:18:33.786Z,2.20
2023-03-17T03:21:37.388Z,2.10
2023-03-17T03:24:40.961Z,1.85
2023-03-17T03:27:43.717Z,1.87
2023-03-17T03:30:47.134Z,2.42
2023-03-17T03:33:50.381Z,2.10
2023-03-17T03:36:53.609Z,1.43
2023-03-17T03:39:56.543Z,1.87
2023-03-17T03:42:59.911Z,1.83
2023-03-17T03:46:05.665Z,1.92
2023-03-17T03:49:08.882Z,1.62
2023-03-17T03:52:11.655Z,1.53
2023-03-17T03:55:16.899Z,2.12
2023-03-17T03:58:19.734Z,2.45
2023-03-17T04:01:23.116Z,2.42
2023-03-17T04:04:26.193Z,1.90
2023-03-17T04:07:29.704Z,2.30
2023-03-17T04:10:33.482Z,2.35
2023-03-17T04:13:36.699Z,2.90
2023-03-17T04:16:41.618Z,3.72
2023-03-17T04:19:46.150Z,2.80
2023-03-17T04:22:49.538Z,2.50
2023-03-17T04:25:55.441Z,3.67
2023-03-17T04:28:59.309Z,3.45
2023-03-17T04:32:02.886Z,2.33
2023-03-17T04:35:07.055Z,3.77
2023-03-17T04:38:13.412Z,4.40
2023-03-17T04:41:16.780Z,4.30
2023-03-17T04:44:19.630Z,3.10
2023-03-17T04:47:22.594Z,2.53
2023-03-17T04:50:25.439Z,2.80
2023-03-17T04:53:28.919Z,2.17
2023-03-17T04:56:32.210Z,2.40
2023-03-17T04:59:35.602Z,3.08
2023-03-17T05:02:39.312Z,4.18
2023-03-17T05:05:42.404Z,3.50
2023-03-17T05:08:45.448Z,3.75
2023-03-17T05:11:48.623Z,4.15
2023-03-17T05:14:51.577Z,4.87
2023-03-17T05:17:54.663Z,4.50
2023-03-17T05:20:57.436Z,3.83
2023-03-17T05:24:00.548Z,2.90
2023-03-17T05:27:03.357Z,3.03
2023-03-17T05:30:07.156Z,3.20
2023-03-17T05:33:10.360Z,3.53
2023-03-17T05:36:13.713Z,3.53
2023-03-17T05:39:16.736Z,5.07
2023-03-17T05:42:20.223Z,4.30
2023-03-17T05:45:23.180Z,3.08
2023-03-17T05:48:26.800Z,2.53
2023-03-17T05:51:29.651Z,2.97
2023-03-17T05:54:32.674Z,3.63
2023-03-17T05:57:35.730Z,4.20
2023-03-17T06:00:39.084Z,2.70
2023-03-17T06:03:42.339Z,5.80
2023-03-17T06:06:45.000Z,3.23
2023-03-17T06:09:48.127Z,1.80
2023-03-17T06:12:51.230Z,3.35
2023-03-17T06:15:54.467Z,3.20
2023-03-17T06:18:57.780Z,2.17
2023-03-17T06:22:01.162Z,2.80
2023-03-17T06:25:05.068Z,2.73
2023-03-17T06:28:08.309Z,2.45
2023-03-17T06:31:11.348Z,2.33
2023-03-17T06:34:14.486Z,2.40
2023-03-17T06:37:17.265Z,2.00
2023-03-17T06:40:20.855Z,1.90
2023-03-17T06:43:25.099Z,18.35
2023-03-17T06:46:28.369Z,15.07
2023-03-17T06:49:31.462Z,4.90
2023-03-17T06:52:34.542Z,2.63
2023-03-17T06:55:37.284Z,2.77
2023-03-17T06:58:40.435Z,2.05
2023-03-17T07:01:43.235Z,2.78
2023-03-17T07:04:47.204Z,3.47
2023-03-17T07:07:50.347Z,2.93
2023-03-17T07:10:57.506Z,3.33
2023-03-17T07:14:00.522Z,2.72
2023-03-17T07:17:05.119Z,3.12
2023-03-17T07:20:08.590Z,2.15
2023-03-17T07:23:20.194Z,3.23
2023-03-17T07:26:22.969Z,2.53
2023-03-17T07:29:27.391Z,3.42
2023-03-17T07:32:30.787Z,2.62
2023-03-17T07:35:34.866Z,3.33
2023-03-17T07:38:38.068Z,2.93
2023-03-17T07:41:41.567Z,4.30
2023-03-17T07:44:45.408Z,6.57
2023-03-17T07:47:49.217Z,4.05
2023-03-17T07:50:52.619Z,3.35
2023-03-17T07:54:04.141Z,3.47
2023-03-17T07:57:07.140Z,3.07
2023-03-17T08:00:11.169Z,2.15
2023-03-17T08:03:14.027Z,3.12
2023-03-17T08:06:17.247Z,2.50
2023-03-17T08:09:21.432Z,2.17
2023-03-17T08:12:25.839Z,3.00
2023-03-17T08:15:28.616Z,4.37
2023-03-17T08:18:32.129Z,3.35
2023-03-17T08:21:35.104Z,2.62
2023-03-17T08:24:39.932Z,2.17
2023-03-17T08:27:43.175Z,2.20
2023-03-17T08:30:50.389Z,1.55
2023-03-17T08:33:57.390Z,2.90
2023-03-17T08:37:02.089Z,2.58
2023-03-17T08:40:06.144Z,4.33
2023-03-17T08:43:09.355Z,5.97
2023-03-17T08:46:20.152Z,3.20
2023-03-17T08:49:23.473Z,5.12
2023-03-17T08:52:27.876Z,2.65
2023-03-17T08:55:31.004Z,2.83
2023-03-17T08:58:35.207Z,3.30
2023-03-17T09:01:40.447Z,3.30
2023-03-17T09:04:43.382Z,7.05
2023-03-17T09:07:46.546Z,3.35
2023-03-17T09:10:49.897Z,3.80
2023-03-17T09:13:53.906Z,2.80
2023-03-17T09:16:57.112Z,2.50
2023-03-17T09:20:00.123Z,5.40
2023-03-17T09:23:08.287Z,2.95
2023-03-17T09:26:13.034Z,2.73
2023-03-17T09:29:15.763Z,3.90
2023-03-17T09:32:19.046Z,3.20
2023-03-17T09:35:22.689Z,2.37
2023-03-17T09:38:27.855Z,9.27
2023-03-17T09:41:33.802Z,3.57
2023-03-17T09:44:59.125Z,2.50
2023-03-17T09:48:28.883Z,3.20
2023-03-17T09:51:32.794Z,2.20
2023-03-17T09:54:38.346Z,2.75
2023-03-17T09:57:41.805Z,5.03
2023-03-17T10:00:44.736Z,4.00
2023-03-17T10:03:48.254Z,2.62
2023-03-17T10:06:52.637Z,2.20
2023-03-17T10:10:05.365Z,2.65
2023-03-17T10:13:17.801Z,2.63
2023-03-17T10:16:41.858Z,1.90
2023-03-17T10:20:01.009Z,2.10
2023-03-17T10:23:13.419Z,2.35
2023-03-17T10:26:29.538Z,2.35
2023-03-17T10:29:32.896Z,2.10
2023-03-17T10:32:38.408Z,2.30
2023-03-17T10:35:44.986Z,2.03
2023-03-17T10:38:52.898Z,2.80
2023-03-17T10:42:08.115Z,2.45
2023-03-17T10:45:28.083Z,1.60
2023-03-17T10:48:36.415Z,2.10
2023-03-17T10:51:40.839Z,1.60
2023-03-17T10:54:48.439Z,1.52
2023-03-17T10:57:56.932Z,1.77
2023-03-17T11:01:06.168Z,1.67
2023-03-17T11:04:32.200Z,2.27
2023-03-17T11:07:40.591Z,3.22
2023-03-17T11:10:44.596Z,1.52
2023-03-17T11:13:48.320Z,2.45
2023-03-17T11:17:15.793Z,2.30
2023-03-17T11:20:38.924Z,2.40
2023-03-17T11:24:01.266Z,2.50
2023-03-17T11:27:11.229Z,2.37
2023-03-17T11:30:33.195Z,2.75
2023-03-17T11:33:52.153Z,3.43
2023-03-17T11:37:16.466Z,2.47
2023-03-17T11:40:34.296Z,3.05
2023-03-17T11:44:21.376Z,3.10
2023-03-17T11:47:43.274Z,4.00
2023-03-17T11:51:20.408Z,3.33
2023-03-17T11:54:44.803Z,3.57
2023-03-17T11:57:57.151Z,4.05
2023-03-17T12:01:03.274Z,3.55
2023-03-17T12:04:34.533Z,3.45
2023-03-17T12:07:45.590Z,3.63
2023-03-17T12:10:54.803Z,3.93
2023-03-17T12:14:06.127Z,2.62
2023-03-17T12:17:25.880Z,3.92
2023-03-17T12:20:48.718Z,3.22
2023-03-17T12:24:02.068Z,2.43
2023-03-17T12:27:14.157Z,2.67
2023-03-17T12:30:55.652Z,2.80
2023-03-17T12:34:15.750Z,3.70
2023-03-17T12:37:20.051Z,3.95
2023-03-17T12:40:44.643Z,2.93
2023-03-17T12:44:25.033Z,3.50
2023-03-17T12:47:30.850Z,1.60
2023-03-17T12:51:11.012Z,2.58
2023-03-17T12:54:48.787Z,2.90
2023-03-17T12:58:04.855Z,2.90
2023-03-17T13:01:40.622Z,2.57
2023-03-17T13:04:58.141Z,2.25
2023-03-17T13:08:04.719Z,2.03
2023-03-17T13:11:36.971Z,2.72
2023-03-17T13:14:44.762Z,3.93
2023-03-17T13:17:48.162Z,1.83
2023-03-17T13:20:59.645Z,1.40
2023-03-17T13:24:21.173Z,2.28
2023-03-17T13:27:32.845Z,2.03
2023-03-17T13:30:35.946Z,2.83
2023-03-17T13:33:56.467Z,2.60
2023-03-17T13:37:15.548Z,2.53
2023-03-17T13:40:38.854Z,2.58
2023-03-17T13:44:03.990Z,2.40
2023-03-17T13:47:25.513Z,2.90
2023-03-17T13:50:32.945Z,2.30
2023-03-17T13:54:14.933Z,6.22
2023-03-17T13:57:30.796Z,1.95
2023-03-17T14:00:37.632Z,2.28
2023-03-17T14:03:49.588Z,2.33
2023-03-17T14:06:56.659Z,2.67
2023-03-17T14:10:02.932Z,3.37
2023-03-17T14:13:23.741Z,3.12
2023-03-17T14:16:38.879Z,2.20
2023-03-17T14:19:43.315Z,2.00
2023-03-17T14:22:49.416Z,2.30
2023-03-17T14:25:55.403Z,1.65
2023-03-17T14:29:04.967Z,1.98
2023-03-17T14:32:19.760Z,2.60
2023-03-17T14:35:22.959Z,2.40
2023-03-17T14:38:34.462Z,2.67
2023-03-17T14:41:37.558Z,2.53
2023-03-17T14:44:43.936Z,1.92
2023-03-17T14:47:47.316Z,2.90
2023-03-17T14:51:05.868Z,2.07
2023-03-17T14:54:20.016Z,2.53
2023-03-17T14:57:29.220Z,2.05
2023-03-17T15:00:38.722Z,2.33
2023-03-17T15:04:12.928Z,1.92
2023-03-17T15:07:31.006Z,4.27
2023-03-17T15:10:43.299Z,3.80
2023-03-17T15:13:47.611Z,2.10
2023-03-17T15:16:57.294Z,1.70
2023-03-17T15:20:05.180Z,1.92
2023-03-17T15:23:19.842Z,2.40
2023-03-17T15:26:31.629Z,2.43
2023-03-17T15:29:34.667Z,2.15
2023-03-17T15:32:38.170Z,4.10
2023-03-17T15:35:41.060Z,2.72
2023-03-17T15:38:44.602Z,6.03
2023-03-17T15:41:47.258Z,2.30
2023-03-17T15:44:50.698Z,2.45
2023-03-17T15:47:53.501Z,3.30
2023-03-17T15:50:58.999Z,3.37
2023-03-17T15:54:01.730Z,3.00
2023-03-17T15:57:04.914Z,3.10
2023-03-17T16:00:08.641Z,2.90
2023-03-17T16:03:24.732Z,2.83
2023-03-17T16:06:27.889Z,5.25
2023-03-17T16:09:30.660Z,3.57
2023-03-17T16:12:33.645Z,3.60
2023-03-17T16:15:41.869Z,3.60
2023-03-17T16:18:47.115Z,8.73
2023-03-17T16:21:50.112Z,7.97
2023-03-17T16:24:53.277Z,5.00
2023-03-17T16:27:58.590Z,7.10
2023-03-17T16:31:02.285Z,4.22
2023-03-17T16:34:16.971Z,4.78
2023-03-17T16:37:20.232Z,4.47
2023-03-17T16:40:34.683Z,1.83
2023-03-17T16:43:38.720Z,3.83
2023-03-17T16:46:45.562Z,4.97
2023-03-17T16:49:48.736Z,5.85
2023-03-17T16:52:51.616Z,9.32
2023-03-17T16:55:55.391Z,18.67
2023-03-17T16:58:58.171Z,19.20
2023-03-17T17:02:02.708Z,15.38
2023-03-17T17:05:14.374Z,7.85
2023-03-17T17:08:18.997Z,7.05
2023-03-17T17:11:22.047Z,5.77
2023-03-17T17:14:25.757Z,5.67
2023-03-17T17:17:28.796Z,6.12
2023-03-17T17:20:36.497Z,4.18
2023-03-17T17:23:39.969Z,5.22
2023-03-17T17:26:44.943Z,12.20
2023-03-17T17:29:48.112Z,27.13
2023-03-17T17:32:52.023Z,28.73
2023-03-17T17:35:55.729Z,22.67
2023-03-17T17:38:59.563Z,10.18
2023-03-17T17:42:03.320Z,9.80
2023-03-17T17:45:08.012Z,10.50
2023-03-17T17:48:12.477Z,11.70
2023-03-17T17:51:16.671Z,9.10
2023-03-17T17:54:20.703Z,14.27
2023-03-17T17:57:25.835Z,10.33
2023-03-17T18:00:30.971Z,12.40
2023-03-17T18:03:35.314Z,13.05
2023-03-17T18:06:40.317Z,14.98
2023-03-17T18:09:44.316Z,12.75
2023-03-17T18:12:47.875Z,9.43
2023-03-17T18:15:52.942Z,10.40
2023-03-17T18:18:59.784Z,11.12
2023-03-17T18:22:05.556Z,9.85
2023-03-17T18:25:13.229Z,9.63
2023-03-17T18:28:18.040Z,9.23
2023-03-17T18:31:37.793Z,12.57
2023-03-17T18:34:47.289Z,17.20
2023-03-17T18:37:52.235Z,22.05
2023-03-17T18:40:56.346Z,17.52
2023-03-17T18:43:59.547Z,15.73
2023-03-17T18:47:04.563Z,10.23
2023-03-17T18:50:12.647Z,10.25
2023-03-17T18:53:16.821Z,9.32
2023-03-17T18:56:22.372Z,8.32
2023-03-17T18:59:27.714Z,7.47
2023-03-17T19:02:32.346Z,6.37
2023-03-17T19:05:38.320Z,5.72
2023-03-17T19:08:43.197Z,6.40
2023-03-17T19:11:47.655Z,7.00
2023-03-17T19:14:54.849Z,10.10
2023-03-17T19:18:01.785Z,7.73
2023-03-17T19:21:06.124Z,7.22
2023-03-17T19:24:12.284Z,8.52
2023-03-17T19:27:16.648Z,11.05
2023-03-17T19:30:22.893Z,17.67
2023-03-17T19:33:32.311Z,16.33
2023-03-17T19:36:43.916Z,14.80
2023-03-17T19:39:48.265Z,14.57
2023-03-17T19:42:54.475Z,12.25
2023-03-17T19:45:58.876Z,11.53
2023-03-17T19:49:05.209Z,11.87
2023-03-17T19:52:11.383Z,7.87
2023-03-17T19:55:18.062Z,8.45
2023-03-17T19:58:22.887Z,8.63
2023-03-17T20:01:31.129Z,7.40
2023-03-17T20:04:38.100Z,8.60
2023-03-17T20:07:42.816Z,8.43
2023-03-17T20:10:50.992Z,10.68
2023-03-17T20:13:54.848Z,8.15
2023-03-17T20:16:59.406Z,7.13
2023-03-17T20:20:03.573Z,6.70
2023-03-17T20:23:09.689Z,6.28
2023-03-17T20:26:13.856Z,6.15
2023-03-17T20:29:18.035Z,6.95
2023-03-17T20:32:25.527Z,6.47
2023-03-17T20:35:31.536Z,5.30
2023-03-17T20:38:39.601Z,4.90
2023-03-17T20:41:43.924Z,4.25
2023-03-17T20:44:53.478Z,4.10
2023-03-17T20:47:58.002Z,4.53
2023-03-17T20:51:04.852Z,4.40
2023-03-17T20:54:11.793Z,5.32
2023-03-17T20:57:16.308Z,7.85
2023-03-17T21:00:25.061Z,8.73
2023-03-17T21:03:29.541Z,8.07
2023-03-17T21:06:34.991Z,6.67
2023-03-17T21:09:38.436Z,9.85
2023-03-17T21:12:44.692Z,7.80
2023-03-17T21:15:48.999Z,9.60
2023-03-17T21:18:52.864Z,5.37
2023-03-17T21:21:56.226Z,8.00
2023-03-17T21:24:59.892Z,10.85
2023-03-17T21:28:05.325Z,10.68
2023-03-17T21:31:11.115Z,11.45
2023-03-17T21:34:14.505Z,8.17
2023-03-17T21:37:19.149Z,7.23
2023-03-17T21:40:24.288Z,6.45
2023-03-17T21:43:29.022Z,5.93
2023-03-17T21:46:32.442Z,6.55
2023-03-17T21:49:35.524Z,4.87
2023-03-17T21:52:38.525Z,5.93
2023-03-17T21:55:41.888Z,5.35
2023-03-17T21:58:44.786Z,5.40
2023-03-17T22:01:48.128Z,4.45
2023-03-17T22:04:51.178Z,4.27
2023-03-17T22:07:54.008Z,4.13
2023-03-17T22:10:58.282Z,3.28
2023-03-17T22:14:02.024Z,4.30
2023-03-17T22:17:08.530Z,4.55
2023-03-17T22:20:11.967Z,4.67
2023-03-17T22:23:15.476Z,5.50
2023-03-17T22:26:21.334Z,5.18
2023-03-17T22:29:24.592Z,4.35
2023-03-17T22:32:27.377Z,2.75
2023-03-17T22:35:30.489Z,4.53
2023-03-17T22:38:34.114Z,5.50
2023-03-17T22:41:38.653Z,4.87
2023-03-17T22:44:41.294Z,4.60
2023-03-17T22:47:44.379Z,5.40
2023-03-17T22:50:47.200Z,5.03
2023-03-17T22:53:51.447Z,4.83
2023-03-17T22:56:54.305Z,4.28
2023-03-17T22:59:58.465Z,4.75
2023-03-17T23:03:01.704Z,4.55
2023-03-17T23:06:06.702Z,3.07
2023-03-17T23:09:09.696Z,4.20
2023-03-17T23:12:13.022Z,4.05
2023-03-17T23:15:16.111Z,4.80
2023-03-17T23:18:19.617Z,4.72
2023-03-17T23:21:28.611Z,2.33
2023-03-17T23:24:31.805Z,3.83
2023-03-17T23:27:34.710Z,4.32
2023-03-17T23:30:38.104Z,4.45
2023-03-17T23:33:40.914Z,3.47
2023-03-17T23:36:44.032Z,3.70
2023-03-17T23:39:47.086Z,3.30
2023-03-17T23:42:50.577Z,3.70
2023-03-17T23:45:54.149Z,2.92
2023-03-17T23:48:58.352Z,3.25
2023-03-17T23:52:01.062Z,3.73
2023-03-17T23:55:06.208Z,3.67
2023-03-17T23:58:08.874Z,3.58
